Terminal Aerodrome Forecast
Issued by NWS Boston, MA

Home | Current Version | Previous Version | Text Only | Print | Product List | Glossary On
Versions: 1 2 3 4 5 6 7 8 9 10 11 12 13 14 15 16 17 18 19 20 21 22 23 24 25 26 27 28 29 30 31 32 33 34 35 36 37 38 39 40 41
000
FTUS41 KBOX 030951 AAB
TAFPVD
TAF AMD
KPVD 030951Z 0310/0406 25004KT P6SM SKC
     FM031200 31004KT P6SM SKC
     FM031900 18004KT P6SM BKN140
     FM032300 18008KT 1SM -SN OVC020
     FM040300 18009KT 1SM -SNPL OVC010
     FM040500 20010G20KT 5SM -FZRAPL OVC010 WS020/20040KT=

USA.gov is the U.S. government's official web portal to all federal, state and local government web resources and services.